createdAt,value
2022-11-26T00:02:17.904Z,7.68
2022-11-26T00:04:44.632Z,8.23
2022-11-26T00:07:12.929Z,8.18
2022-11-26T00:09:39.884Z,8.20
2022-11-26T00:12:15.777Z,8.50
2022-11-26T00:14:42.154Z,7.95
2022-11-26T00:17:12.363Z,8.80
2022-11-26T00:19:41.954Z,8.85
2022-11-26T00:22:30.594Z,8.73
2022-11-26T00:24:57.677Z,8.27
2022-11-26T00:27:26.354Z,8.65
2022-11-26T00:32:22.059Z,8.18
2022-11-26T00:37:25.918Z,8.10
2022-11-26T00:39:52.440Z,8.38
2022-11-26T00:42:19.395Z,8.52
2022-11-26T00:44:45.809Z,8.35
2022-11-26T00:47:12.307Z,8.85
2022-11-26T00:49:38.756Z,8.77
2022-11-26T00:52:20.070Z,9.07
2022-11-26T00:54:46.460Z,8.52
2022-11-26T00:57:12.874Z,7.93
2022-11-26T00:59:39.254Z,8.50
2022-11-26T01:02:05.783Z,8.75
2022-11-26T01:04:32.396Z,8.10
2022-11-26T01:06:58.856Z,8.15
2022-11-26T01:09:28.181Z,8.18
2022-11-26T01:11:54.760Z,8.27
2022-11-26T01:14:22.492Z,7.53
2022-11-26T01:16:49.626Z,7.78
2022-11-26T01:19:16.461Z,8.05
2022-11-26T01:21:43.350Z,8.00
2022-11-26T01:24:09.759Z,7.82
2022-11-26T01:26:41.674Z,8.32
2022-11-26T01:29:14.537Z,8.05
2022-11-26T01:31:40.990Z,7.55
2022-11-26T01:34:07.477Z,8.60
2022-11-26T01:36:36.962Z,8.07
2022-11-26T01:39:16.771Z,8.63
2022-11-26T01:42:13.686Z,8.07
2022-11-26T01:44:40.259Z,8.07
2022-11-26T01:47:24.614Z,7.65
2022-11-26T01:50:28.362Z,7.78
2022-11-26T01:53:10.282Z,8.23
2022-11-26T01:55:43.417Z,7.50
2022-11-26T01:58:14.114Z,8.05
2022-11-26T02:00:40.888Z,8.00
2022-11-26T02:03:08.000Z,8.48
2022-11-26T02:05:43.679Z,8.00
2022-11-26T02:08:12.112Z,7.93
2022-11-26T02:10:38.522Z,7.95
2022-11-26T02:13:05.795Z,8.20
2022-11-26T02:15:41.551Z,7.97
2022-11-26T02:18:09.722Z,7.85
2022-11-26T02:20:51.221Z,8.15
2022-11-26T02:23:23.624Z,7.72
2022-11-26T02:26:17.230Z,7.35
2022-11-26T02:29:10.081Z,8.57
2022-11-26T02:32:08.511Z,7.20
2022-11-26T02:34:53.009Z,7.20
2022-11-26T02:37:27.734Z,7.70
2022-11-26T02:39:54.159Z,6.63
2022-11-26T02:42:26.077Z,7.05
2022-11-26T02:44:55.326Z,6.40
2022-11-26T02:47:24.514Z,6.30
2022-11-26T02:49:52.534Z,6.70
2022-11-26T02:52:21.802Z,6.13
2022-11-26T02:54:50.626Z,5.93
2022-11-26T02:59:46.547Z,5.70
2022-11-26T03:02:33.321Z,5.60
2022-11-26T03:05:01.871Z,5.38
2022-11-26T03:07:32.487Z,5.85
2022-11-26T03:10:01.081Z,5.50
2022-11-26T03:12:29.389Z,5.40
2022-11-26T03:14:55.957Z,5.32
2022-11-26T03:17:22.365Z,5.85
2022-11-26T03:19:48.889Z,5.40
2022-11-26T03:22:18.473Z,5.50
2022-11-26T03:24:44.888Z,4.90
2022-11-26T03:27:11.300Z,5.30
2022-11-26T03:29:37.757Z,5.65
2022-11-26T03:32:04.590Z,5.80
2022-11-26T03:34:33.283Z,5.80
2022-11-26T03:37:00.731Z,5.80
2022-11-26T03:39:27.228Z,5.25
2022-11-26T03:41:53.603Z,4.95
2022-11-26T03:44:20.167Z,4.75
2022-11-26T03:46:46.554Z,5.70
2022-11-26T03:49:12.982Z,4.80
2022-11-26T03:51:39.449Z,5.13
2022-11-26T03:54:05.865Z,5.47
2022-11-26T03:56:32.262Z,5.32
2022-11-26T03:58:58.757Z,5.30
2022-11-26T04:01:25.648Z,6.00
2022-11-26T04:03:52.196Z,5.55
2022-11-26T04:06:18.649Z,5.30
2022-11-26T04:08:45.067Z,5.72
2022-11-26T04:11:11.464Z,5.78
2022-11-26T04:13:37.829Z,5.68
2022-11-26T04:16:04.417Z,5.60
2022-11-26T04:18:30.860Z,5.30
2022-11-26T04:20:57.262Z,4.72
2022-11-26T04:23:24.388Z,5.25
2022-11-26T04:25:50.924Z,5.28
2022-11-26T04:28:17.329Z,5.45
2022-11-26T04:30:43.882Z,5.07
2022-11-26T04:33:13.580Z,5.25
2022-11-26T04:35:39.978Z,4.80
2022-11-26T04:38:06.361Z,5.15
2022-11-26T04:40:32.935Z,5.28
2022-11-26T04:42:59.342Z,4.63
2022-11-26T04:45:25.906Z,6.03
2022-11-26T04:50:21.139Z,5.28
2022-11-26T04:52:48.506Z,5.30
2022-11-26T04:55:16.137Z,5.18
2022-11-26T04:57:42.605Z,4.78
2022-11-26T05:00:09.976Z,5.60
2022-11-26T05:02:36.475Z,4.97
2022-11-26T05:05:03.389Z,5.70
2022-11-26T05:07:29.844Z,5.82
2022-11-26T05:09:56.297Z,5.50
2022-11-26T05:12:22.733Z,6.38
2022-11-26T05:14:49.203Z,7.65
2022-11-26T05:17:15.701Z,5.75
2022-11-26T05:19:42.141Z,5.38
2022-11-26T05:22:08.506Z,6.40
2022-11-26T05:24:34.913Z,6.07
2022-11-26T05:27:01.848Z,6.43
2022-11-26T05:29:28.395Z,5.72
2022-11-26T05:31:54.949Z,6.32
2022-11-26T05:34:21.450Z,6.15
2022-11-26T05:36:47.905Z,6.55
2022-11-26T05:39:14.397Z,6.18
2022-11-26T05:41:40.790Z,6.20
2022-11-26T05:44:07.150Z,5.88
2022-11-26T05:46:33.936Z,5.72
2022-11-26T05:49:00.369Z,5.95
2022-11-26T05:51:26.757Z,6.10
2022-11-26T05:53:53.205Z,6.20
2022-11-26T05:56:19.693Z,6.53
2022-11-26T05:58:46.091Z,6.10
2022-11-26T06:01:12.537Z,5.88
2022-11-26T06:03:39.148Z,6.03
2022-11-26T06:06:05.854Z,6.15
2022-11-26T06:08:32.415Z,6.10
2022-11-26T06:10:58.840Z,5.65
2022-11-26T06:13:25.269Z,6.05
2022-11-26T06:15:51.957Z,5.85
2022-11-26T06:18:18.513Z,6.45
2022-11-26T06:20:45.045Z,6.10
2022-11-26T06:23:11.748Z,6.38
2022-11-26T06:25:41.866Z,6.45
2022-11-26T06:28:08.296Z,7.78
2022-11-26T06:30:34.706Z,6.75
2022-11-26T06:33:01.116Z,5.95
2022-11-26T06:35:27.562Z,6.97
2022-11-26T06:37:53.948Z,7.13
2022-11-26T06:40:20.679Z,7.05
2022-11-26T06:42:51.839Z,7.20
2022-11-26T06:45:19.186Z,6.55
2022-11-26T06:47:47.380Z,6.00
2022-11-26T06:50:15.749Z,5.88
2022-11-26T06:52:42.289Z,5.22
2022-11-26T06:55:09.591Z,6.32
2022-11-26T06:57:36.199Z,5.45
2022-11-26T07:00:05.491Z,4.82
2022-11-26T07:02:32.121Z,5.30
2022-11-26T07:04:58.653Z,5.38
2022-11-26T07:07:25.225Z,5.95
2022-11-26T07:09:51.735Z,5.45
2022-11-26T07:12:18.357Z,5.97
2022-11-26T07:14:44.870Z,5.85
2022-11-26T07:17:11.302Z,6.28
2022-11-26T07:19:37.719Z,6.43
2022-11-26T07:22:04.269Z,5.93
2022-11-26T07:24:30.714Z,4.88
2022-11-26T07:26:57.122Z,6.18
2022-11-26T07:29:23.572Z,5.00
2022-11-26T07:31:50.053Z,5.47
2022-11-26T07:34:16.562Z,5.60
2022-11-26T07:36:43.548Z,5.65
2022-11-26T07:39:11.782Z,5.70
2022-11-26T07:45:26.065Z,5.28
2022-11-26T07:47:52.589Z,5.40
2022-11-26T07:50:19.101Z,5.47
2022-11-26T07:52:45.564Z,5.70
2022-11-26T07:55:12.749Z,4.88
2022-11-26T07:57:39.335Z,4.90
2022-11-26T08:00:06.555Z,5.15
2022-11-26T08:02:33.012Z,5.70
2022-11-26T08:05:02.745Z,5.80
2022-11-26T08:07:29.759Z,6.28
2022-11-26T08:09:56.473Z,6.13
2022-11-26T08:12:22.947Z,5.80
2022-11-26T08:14:49.445Z,6.80
2022-11-26T08:17:15.830Z,5.80
2022-11-26T08:19:42.237Z,6.22
2022-11-26T08:22:08.670Z,6.45
2022-11-26T08:24:36.090Z,6.75
2022-11-26T08:27:02.963Z,7.32
2022-11-26T08:29:29.418Z,8.30
2022-11-26T08:31:55.851Z,7.00
2022-11-26T08:34:22.289Z,6.82
2022-11-26T08:36:48.743Z,6.47
2022-11-26T08:39:17.319Z,9.30
2022-11-26T08:41:50.282Z,7.03
2022-11-26T08:44:18.831Z,7.57
2022-11-26T08:46:45.236Z,6.45
2022-11-26T08:49:13.515Z,6.45
2022-11-26T08:51:40.143Z,6.68
2022-11-26T08:54:07.042Z,7.50
2022-11-26T08:56:34.280Z,7.55
2022-11-26T08:59:01.112Z,7.65
2022-11-26T09:01:30.309Z,7.22
2022-11-26T09:03:59.906Z,8.43
2022-11-26T09:06:28.723Z,6.80
2022-11-26T09:09:14.480Z,8.50
2022-11-26T09:11:55.931Z,6.85
2022-11-26T09:14:25.781Z,7.03
2022-11-26T09:16:54.064Z,6.50
2022-11-26T09:19:21.056Z,6.55
2022-11-26T09:21:50.174Z,6.80
2022-11-26T09:24:17.311Z,8.38
2022-11-26T09:26:44.335Z,8.27
2022-11-26T09:29:15.494Z,14.20
2022-11-26T09:32:07.642Z,8.23
2022-11-26T09:34:30.474Z,6.78
2022-11-26T09:36:56.896Z,6.32
2022-11-26T09:39:23.317Z,6.65
2022-11-26T09:42:01.949Z,6.38
2022-11-26T09:44:37.661Z,7.43
2022-11-26T09:47:22.926Z,6.57
2022-11-26T09:50:02.664Z,6.40
2022-11-26T09:52:36.243Z,6.60
2022-11-26T09:55:17.032Z,6.80
2022-11-26T09:57:50.551Z,6.35
2022-11-26T10:00:28.146Z,6.38
2022-11-26T10:02:56.532Z,6.10
2022-11-26T10:05:40.915Z,6.90
2022-11-26T10:08:14.200Z,7.13
2022-11-26T10:11:06.858Z,7.32
2022-11-26T10:13:46.741Z,7.25
2022-11-26T10:16:16.064Z,6.63
2022-11-26T10:18:56.866Z,6.53
2022-11-26T10:21:57.586Z,7.38
2022-11-26T10:24:42.203Z,7.20
2022-11-26T10:27:18.400Z,6.47
2022-11-26T10:29:56.490Z,6.50
2022-11-26T10:32:30.758Z,6.53
2022-11-26T10:34:59.016Z,7.25
2022-11-26T10:37:27.981Z,6.38
2022-11-26T10:40:11.827Z,9.18
2022-11-26T10:42:43.873Z,6.60
2022-11-26T10:45:19.400Z,6.25
2022-11-26T10:47:45.885Z,7.60
2022-11-26T10:50:46.651Z,7.75
2022-11-26T10:53:21.925Z,6.70
2022-11-26T10:55:48.601Z,6.85
2022-11-26T10:58:19.054Z,7.07
2022-11-26T11:00:48.419Z,7.55
2022-11-26T11:03:44.537Z,8.68
2022-11-26T11:06:25.360Z,8.45
2022-11-26T11:08:52.977Z,8.95
2022-11-26T11:11:28.765Z,6.93
2022-11-26T11:13:56.102Z,8.32
2022-11-26T11:16:27.281Z,8.10
2022-11-26T11:19:00.086Z,8.30
2022-11-26T11:21:38.132Z,7.20
2022-11-26T11:24:37.941Z,11.13
2022-11-26T11:27:04.449Z,5.45
2022-11-26T11:29:37.456Z,6.32
2022-11-26T11:32:06.588Z,6.13
2022-11-26T11:34:39.089Z,5.82
2022-11-26T11:37:14.789Z,7.28
2022-11-26T11:39:42.987Z,5.88
2022-11-26T11:42:29.248Z,5.13
2022-11-26T11:44:58.155Z,6.15
2022-11-26T11:47:42.870Z,5.50
2022-11-26T11:50:29.182Z,5.50
2022-11-26T11:53:05.423Z,6.00
2022-11-26T11:55:52.215Z,6.72
2022-11-26T11:58:38.474Z,6.53
2022-11-26T12:01:32.127Z,6.10
2022-11-26T12:04:31.448Z,5.80
2022-11-26T12:07:29.811Z,5.30
2022-11-26T12:10:08.037Z,6.50
2022-11-26T12:12:46.369Z,5.70
2022-11-26T12:15:55.206Z,6.03
2022-11-26T12:18:26.785Z,6.15
2022-11-26T12:21:02.083Z,6.07
2022-11-26T12:23:48.004Z,6.05
2022-11-26T12:26:22.017Z,5.65
2022-11-26T12:29:12.276Z,5.18
2022-11-26T12:31:43.755Z,6.60
2022-11-26T12:34:31.732Z,6.10
2022-11-26T12:37:03.993Z,6.10
2022-11-26T12:39:47.970Z,6.05
2022-11-26T12:45:02.689Z,6.15
2022-11-26T12:47:38.133Z,5.97
2022-11-26T12:50:23.111Z,6.05
2022-11-26T12:53:01.405Z,5.93
2022-11-26T12:55:45.577Z,6.22
2022-11-26T12:58:33.398Z,6.32
2022-11-26T13:01:00.151Z,7.00
2022-11-26T13:03:29.238Z,5.85
2022-11-26T13:06:20.514Z,5.57
2022-11-26T13:09:16.282Z,6.43
2022-11-26T13:11:54.613Z,6.22
2022-11-26T13:14:30.279Z,7.03
2022-11-26T13:17:06.290Z,6.18
2022-11-26T13:19:45.073Z,6.00
2022-11-26T13:22:20.965Z,6.22
2022-11-26T13:25:00.234Z,6.60
2022-11-26T13:28:00.932Z,6.35
2022-11-26T13:31:02.804Z,5.88
2022-11-26T13:33:58.570Z,6.53
2022-11-26T13:36:42.719Z,5.15
2022-11-26T13:39:37.867Z,5.93
2022-11-26T13:42:26.149Z,5.82
2022-11-26T13:45:04.227Z,7.28
2022-11-26T13:47:36.741Z,8.40
2022-11-26T13:50:15.372Z,7.20
2022-11-26T13:52:49.248Z,5.22
2022-11-26T13:55:21.859Z,6.13
2022-11-26T13:57:55.365Z,5.95
2022-11-26T14:00:24.402Z,7.32
2022-11-26T14:02:50.964Z,6.10
2022-11-26T14:05:17.758Z,6.75
2022-11-26T14:07:45.567Z,6.20
2022-11-26T14:10:37.044Z,10.68
2022-11-26T14:13:03.536Z,6.72
2022-11-26T14:15:42.206Z,10.80
2022-11-26T14:18:13.937Z,5.32
2022-11-26T14:21:01.602Z,5.80
2022-11-26T14:23:46.455Z,6.63
2022-11-26T14:26:29.972Z,7.68
2022-11-26T14:29:08.409Z,6.80
2022-11-26T14:31:38.486Z,6.70
2022-11-26T14:34:16.095Z,7.10
2022-11-26T14:37:00.117Z,5.90
2022-11-26T14:39:28.261Z,6.30
2022-11-26T14:42:00.495Z,6.38
2022-11-26T14:44:30.459Z,6.93
2022-11-26T14:46:59.354Z,6.53
2022-11-26T14:49:40.092Z,5.78
2022-11-26T14:52:33.820Z,6.50
2022-11-26T14:55:03.061Z,6.32
2022-11-26T14:57:41.614Z,5.82
2022-11-26T15:00:22.764Z,6.53
2022-11-26T15:02:49.406Z,5.80
2022-11-26T15:05:48.506Z,6.18
2022-11-26T15:08:17.723Z,6.57
2022-11-26T15:10:52.110Z,6.28
2022-11-26T15:13:25.984Z,6.03
2022-11-26T15:15:54.697Z,6.50
2022-11-26T15:20:54.051Z,6.32
2022-11-26T15:23:28.176Z,6.03
2022-11-26T15:25:55.461Z,6.30
2022-11-26T15:28:23.539Z,5.88
2022-11-26T15:31:02.346Z,5.90
2022-11-26T15:33:31.878Z,6.57
2022-11-26T15:35:58.624Z,6.57
2022-11-26T15:38:27.545Z,6.65
2022-11-26T15:41:07.084Z,6.53
2022-11-26T15:43:45.456Z,6.25
2022-11-26T15:46:32.874Z,6.72
2022-11-26T15:49:03.862Z,6.75
2022-11-26T15:51:36.127Z,5.78
2022-11-26T15:54:06.282Z,6.93
2022-11-26T15:56:36.738Z,6.53
2022-11-26T15:59:13.082Z,7.78
2022-11-26T16:01:44.183Z,7.07
2022-11-26T16:04:33.304Z,7.07
2022-11-26T16:07:08.901Z,6.63
2022-11-26T16:09:35.462Z,6.60
2022-11-26T16:12:02.021Z,6.97
2022-11-26T16:14:32.188Z,7.25
2022-11-26T16:17:08.037Z,7.55
2022-11-26T16:19:36.269Z,7.80
2022-11-26T16:22:05.238Z,7.97
2022-11-26T16:27:25.291Z,11.48
2022-11-26T16:29:51.699Z,11.38
2022-11-26T16:32:19.088Z,19.67
2022-11-26T16:34:46.073Z,12.45
2022-11-26T16:37:26.163Z,8.95
2022-11-26T16:40:14.743Z,9.40
2022-11-26T16:42:41.213Z,12.30
2022-11-26T16:45:09.746Z,12.15
2022-11-26T16:47:42.194Z,8.60
2022-11-26T16:50:20.498Z,10.73
2022-11-26T16:52:47.670Z,11.57
2022-11-26T16:55:16.709Z,11.20
2022-11-26T16:57:52.954Z,10.25
2022-11-26T17:00:22.817Z,12.90
2022-11-26T17:02:49.828Z,11.88
2022-11-26T17:05:17.348Z,8.57
2022-11-26T17:07:55.934Z,7.55
2022-11-26T17:10:25.354Z,7.45
2022-11-26T17:12:51.800Z,7.38
2022-11-26T17:15:18.403Z,7.20
2022-11-26T17:17:45.241Z,7.60
2022-11-26T17:20:18.552Z,6.93
2022-11-26T17:22:45.623Z,7.45
2022-11-26T17:25:13.011Z,7.35
2022-11-26T17:27:41.322Z,7.00
2022-11-26T17:30:12.481Z,7.70
2022-11-26T17:32:38.865Z,8.18
2022-11-26T17:35:05.378Z,7.97
2022-11-26T17:37:31.819Z,7.57
2022-11-26T17:39:58.307Z,7.18
2022-11-26T17:42:25.523Z,6.45
2022-11-26T17:44:53.395Z,6.13
2022-11-26T17:47:22.787Z,5.80
2022-11-26T17:49:49.788Z,6.40
2022-11-26T17:52:17.089Z,6.53
2022-11-26T17:54:44.647Z,6.40
2022-11-26T17:57:15.651Z,6.38
2022-11-26T17:59:42.919Z,10.25
2022-11-26T18:02:10.547Z,7.53
2022-11-26T18:04:37.833Z,7.88
2022-11-26T18:07:08.547Z,8.38
2022-11-26T18:09:35.233Z,9.48
2022-11-26T18:12:02.914Z,10.48
2022-11-26T18:14:29.402Z,9.57
2022-11-26T18:16:55.982Z,9.38
2022-11-26T18:19:24.112Z,8.07
2022-11-26T18:21:51.618Z,8.70
2022-11-26T18:24:18.322Z,8.25
2022-11-26T18:26:45.189Z,9.82
2022-11-26T18:29:11.817Z,9.07
2022-11-26T18:31:39.845Z,11.50
2022-11-26T18:34:07.194Z,8.35
2022-11-26T18:36:33.654Z,9.18
2022-11-26T18:39:00.045Z,9.40
2022-11-26T18:41:26.477Z,7.72
2022-11-26T18:43:52.869Z,7.43
2022-11-26T18:46:19.341Z,6.95
2022-11-26T18:48:48.511Z,7.45
2022-11-26T18:51:16.314Z,11.05
2022-11-26T18:53:44.184Z,17.05
2022-11-26T18:56:18.301Z,15.38
2022-11-26T18:58:45.572Z,9.80
2022-11-26T19:01:32.286Z,8.20
2022-11-26T19:03:59.301Z,9.38
2022-11-26T19:06:30.784Z,8.82
2022-11-26T19:09:06.568Z,8.75
2022-11-26T19:11:33.793Z,7.07
2022-11-26T19:14:00.537Z,6.75
2022-11-26T19:16:28.117Z,6.90
2022-11-26T19:18:54.903Z,6.80
2022-11-26T19:21:27.195Z,6.85
2022-11-26T19:23:55.050Z,6.55
2022-11-26T19:26:22.333Z,6.38
2022-11-26T19:28:48.998Z,6.80
2022-11-26T19:31:18.521Z,7.88
2022-11-26T19:33:48.654Z,7.57
2022-11-26T19:36:16.889Z,8.55
2022-11-26T19:38:44.703Z,8.25
2022-11-26T19:41:12.321Z,8.65
2022-11-26T19:43:41.409Z,7.50
2022-11-26T19:46:14.278Z,7.90
2022-11-26T19:48:42.369Z,6.63
2022-11-26T19:51:10.127Z,5.88
2022-11-26T19:53:37.784Z,6.63
2022-11-26T19:56:07.609Z,7.05
2022-11-26T19:58:36.075Z,8.60
2022-11-26T20:01:06.332Z,8.98
2022-11-26T20:03:37.419Z,8.52
2022-11-26T20:06:06.657Z,8.93
2022-11-26T20:08:35.768Z,9.07
2022-11-26T20:11:03.919Z,8.73
2022-11-26T20:13:30.368Z,9.55
2022-11-26T20:15:56.782Z,9.10
2022-11-26T20:18:23.545Z,9.50
2022-11-26T20:21:05.765Z,8.75
2022-11-26T20:23:32.149Z,8.05
2022-11-26T20:25:58.568Z,9.85
2022-11-26T20:28:24.986Z,9.18
2022-11-26T20:30:51.552Z,10.10
2022-11-26T20:33:18.920Z,10.02
2022-11-26T20:35:45.789Z,8.38
2022-11-26T20:38:12.862Z,10.48
2022-11-26T20:40:41.824Z,10.32
2022-11-26T20:43:11.009Z,9.60
2022-11-26T20:45:37.845Z,7.95
2022-11-26T20:48:05.209Z,9.30
2022-11-26T20:50:31.684Z,9.45
2022-11-26T20:52:58.544Z,8.55
2022-11-26T20:55:25.157Z,9.35
2022-11-26T20:57:51.793Z,7.60
2022-11-26T21:00:22.444Z,9.15
2022-11-26T21:02:52.697Z,8.57
2022-11-26T21:05:19.443Z,7.70
2022-11-26T21:07:45.976Z,9.43
2022-11-26T21:10:14.481Z,9.15
2022-11-26T21:12:40.865Z,8.63
2022-11-26T21:15:08.024Z,10.32
2022-11-26T21:17:34.527Z,8.98
2022-11-26T21:20:01.001Z,8.20
2022-11-26T21:22:27.489Z,9.57
2022-11-26T21:24:53.940Z,8.00
2022-11-26T21:27:20.469Z,8.82
2022-11-26T21:29:46.874Z,10.13
2022-11-26T21:32:13.285Z,7.60
2022-11-26T21:34:39.708Z,8.20
2022-11-26T21:37:06.164Z,8.10
2022-11-26T21:39:32.555Z,8.55
2022-11-26T21:41:58.986Z,9.02
2022-11-26T21:44:25.394Z,8.45
2022-11-26T21:46:51.868Z,8.02
2022-11-26T21:49:18.289Z,8.90
2022-11-26T21:51:44.811Z,7.32
2022-11-26T21:54:12.102Z,8.13
2022-11-26T21:56:38.689Z,7.60
2022-11-26T21:59:05.187Z,8.25
2022-11-26T22:01:36.395Z,7.93
2022-11-26T22:04:21.383Z,7.07
2022-11-26T22:06:48.731Z,7.97
2022-11-26T22:09:16.346Z,7.55
2022-11-26T22:11:45.852Z,7.60
2022-11-26T22:14:15.358Z,7.50
2022-11-26T22:16:42.277Z,8.15
2022-11-26T22:19:09.611Z,8.88
2022-11-26T22:21:39.305Z,9.30
2022-11-26T22:24:08.135Z,7.15
2022-11-26T22:26:34.551Z,7.97
2022-11-26T22:29:01.524Z,8.63
2022-11-26T22:31:33.594Z,9.30
2022-11-26T22:34:10.557Z,9.85
2022-11-26T22:36:38.564Z,9.88
2022-11-26T22:39:06.582Z,9.32
2022-11-26T22:41:33.006Z,8.70
2022-11-26T22:44:00.314Z,8.73
2022-11-26T22:46:26.790Z,8.07
2022-11-26T22:48:59.734Z,8.48
2022-11-26T22:51:28.839Z,7.53
2022-11-26T22:54:00.583Z,8.35
2022-11-26T22:56:28.322Z,8.10
2022-11-26T22:58:54.953Z,8.32
2022-11-26T23:01:24.443Z,7.63
2022-11-26T23:03:51.799Z,7.88
2022-11-26T23:06:20.274Z,7.32
2022-11-26T23:08:47.974Z,7.35
2022-11-26T23:11:17.866Z,7.43
2022-11-26T23:13:46.426Z,7.63
2022-11-26T23:16:13.321Z,7.57
2022-11-26T23:18:40.075Z,7.63
2022-11-26T23:21:36.957Z,7.28
2022-11-26T23:24:04.609Z,7.22
2022-11-26T23:26:33.487Z,7.47
2022-11-26T23:29:02.955Z,7.05
2022-11-26T23:31:35.330Z,7.65
2022-11-26T23:34:02.346Z,7.57
2022-11-26T23:36:30.105Z,7.10
2022-11-26T23:38:59.284Z,8.43
2022-11-26T23:41:25.988Z,7.88
2022-11-26T23:43:52.565Z,7.97
2022-11-26T23:46:20.791Z,7.45
2022-11-26T23:48:48.872Z,7.32
2022-11-26T23:51:18.714Z,7.05
2022-11-26T23:53:46.488Z,6.03
2022-11-26T23:56:25.182Z,7.05
2022-11-26T23:58:53.622Z,6.97
